createdAt,value
2022-09-15T00:01:44.835Z,99383.03
2022-09-15T00:04:13.387Z,99384.34
2022-09-15T00:06:42.385Z,99390.75
2022-09-15T00:09:11.937Z,99392.91
2022-09-15T00:11:40.748Z,99377.84
2022-09-15T00:14:09.937Z,99371.84
2022-09-15T00:16:39.337Z,99373.00
2022-09-15T00:19:09.037Z,99373.41
2022-09-15T00:21:41.280Z,99375.03
2022-09-15T00:24:10.479Z,99353.38
2022-09-15T00:26:39.327Z,99365.22
2022-09-15T00:29:07.419Z,99368.78
2022-09-15T00:31:55.588Z,99373.78
2022-09-15T00:34:23.675Z,99365.97
2022-09-15T00:36:53.448Z,99354.22
2022-09-15T00:39:22.379Z,99370.84
2022-09-15T00:41:51.007Z,99375.38
2022-09-15T00:44:37.003Z,99370.13
2022-09-15T00:47:19.383Z,99382.41
2022-09-15T00:49:58.365Z,99355.84
2022-09-15T00:52:46.396Z,99361.97
2022-09-15T00:55:43.302Z,99369.53
2022-09-15T00:58:50.193Z,99365.25
2022-09-15T01:01:18.518Z,99357.50
2022-09-15T01:03:46.913Z,99360.19
2022-09-15T01:06:36.603Z,99339.44
2022-09-15T01:09:25.368Z,99336.41
2022-09-15T01:11:53.618Z,99352.50
2022-09-15T01:14:23.175Z,99349.25
2022-09-15T01:17:15.371Z,99342.28
2022-09-15T01:20:10.509Z,99347.97
2022-09-15T01:22:51.574Z,99351.13
2022-09-15T01:25:48.588Z,99350.56
2022-09-15T01:28:47.555Z,99349.28
2022-09-15T01:32:15.331Z,99343.63
2022-09-15T01:35:13.568Z,99342.38
2022-09-15T01:38:04.005Z,99343.22
2022-09-15T01:41:19.530Z,99347.19
2022-09-15T01:44:26.453Z,99340.50
2022-09-15T01:47:01.587Z,99329.97
2022-09-15T01:49:51.019Z,99310.63
2022-09-15T01:52:22.906Z,99316.63
2022-09-15T01:54:58.079Z,99341.34
2022-09-15T01:57:28.597Z,99328.97
2022-09-15T01:59:57.720Z,99329.28
2022-09-15T02:02:39.594Z,99323.88
2022-09-15T02:05:20.688Z,99328.13
2022-09-15T02:08:10.076Z,99325.28
2022-09-15T02:10:47.199Z,99328.00
2022-09-15T02:13:58.393Z,99327.28
2022-09-15T02:16:35.449Z,99322.03
2022-09-15T02:19:34.161Z,99319.59
2022-09-15T02:22:17.861Z,99328.84
2022-09-15T02:25:05.860Z,99312.66
2022-09-15T02:27:41.163Z,99332.41
2022-09-15T02:30:14.544Z,99330.38
2022-09-15T02:32:56.534Z,99330.22
2022-09-15T02:35:28.658Z,99322.72
2022-09-15T02:37:57.478Z,99328.97
2022-09-15T02:40:26.545Z,99330.38
2022-09-15T02:43:03.769Z,99339.75
2022-09-15T02:45:32.124Z,99336.53
2022-09-15T02:48:00.326Z,99338.06
2022-09-15T02:50:28.813Z,99338.91
2022-09-15T02:52:57.884Z,99334.34
2022-09-15T02:55:29.489Z,99335.09
2022-09-15T02:57:58.909Z,99338.63
2022-09-15T03:00:28.475Z,99341.34
2022-09-15T03:02:57.117Z,99338.63
2022-09-15T03:05:29.902Z,99352.72
2022-09-15T03:07:58.661Z,99354.53
2022-09-15T03:10:27.841Z,99351.84
2022-09-15T03:12:56.486Z,99352.72
2022-09-15T03:15:30.705Z,99351.56
2022-09-15T03:18:04.130Z,99354.53
2022-09-15T03:20:32.296Z,99354.28
2022-09-15T03:23:00.380Z,99354.00
2022-09-15T03:25:29.576Z,99352.97
2022-09-15T03:27:58.545Z,99344.16
2022-09-15T03:30:27.807Z,99357.94
2022-09-15T03:32:56.966Z,99349.00
2022-09-15T03:35:26.885Z,99341.00
2022-09-15T03:37:54.925Z,99346.56
2022-09-15T03:40:23.333Z,99337.03
2022-09-15T03:42:51.463Z,99363.06
2022-09-15T03:45:22.347Z,99358.53
2022-09-15T03:47:52.622Z,99352.53
2022-09-15T03:50:20.904Z,99369.88
2022-09-15T03:52:49.817Z,99364.34
2022-09-15T03:55:18.512Z,99360.06
2022-09-15T03:57:47.329Z,99367.75
2022-09-15T04:00:16.817Z,99358.22
2022-09-15T04:02:52.975Z,99354.22
2022-09-15T04:05:21.915Z,99357.94
2022-09-15T04:07:51.060Z,99353.13
2022-09-15T04:10:20.055Z,99359.63
2022-09-15T04:12:48.266Z,99350.50
2022-09-15T04:15:16.777Z,99347.09
2022-09-15T04:17:44.979Z,99327.88
2022-09-15T04:20:17.481Z,99351.25
2022-09-15T04:22:45.923Z,99350.41
2022-09-15T04:25:14.757Z,99349.09
2022-09-15T04:27:43.924Z,99354.94
2022-09-15T04:30:12.501Z,99348.25
2022-09-15T04:32:40.624Z,99341.97
2022-09-15T04:35:09.119Z,99343.84
2022-09-15T04:37:38.866Z,99348.97
2022-09-15T04:40:10.380Z,99354.38
2022-09-15T04:42:38.895Z,99347.22
2022-09-15T04:45:07.549Z,99338.19
2022-09-15T04:47:36.079Z,99354.38
2022-09-15T04:50:06.531Z,99348.97
2022-09-15T04:52:34.857Z,99352.78
2022-09-15T04:55:05.116Z,99356.06
2022-09-15T04:57:36.030Z,99345.69
2022-09-15T05:00:08.755Z,99358.06
2022-09-15T05:02:38.732Z,99346.25
2022-09-15T05:05:08.932Z,99341.56
2022-09-15T05:07:36.778Z,99346.81
2022-09-15T05:10:06.017Z,99358.06
2022-09-15T05:12:35.647Z,99358.38
2022-09-15T05:15:08.386Z,99365.47
2022-09-15T05:17:37.714Z,99361.06
2022-09-15T05:20:06.843Z,99356.09
2022-09-15T05:22:40.907Z,99367.19
2022-09-15T05:25:11.995Z,99364.63
2022-09-15T05:27:40.468Z,99368.19
2022-09-15T05:30:35.780Z,99369.75
2022-09-15T05:32:57.861Z,99363.47
2022-09-15T05:35:26.766Z,99368.59
2022-09-15T05:37:55.438Z,99372.91
2022-09-15T05:40:25.059Z,99369.44
2022-09-15T05:42:52.940Z,99381.03
2022-09-15T05:45:22.763Z,99383.56
2022-09-15T05:47:51.480Z,99375.84
2022-09-15T05:50:19.327Z,99385.41
2022-09-15T05:52:53.097Z,99374.59
2022-09-15T05:55:22.370Z,99369.34
2022-09-15T05:57:53.769Z,99378.31
2022-09-15T06:00:24.841Z,99367.63
2022-09-15T06:02:52.681Z,99374.16
2022-09-15T06:05:21.145Z,99382.56
2022-09-15T06:07:49.658Z,99386.97
2022-09-15T06:10:19.068Z,99384.97
2022-09-15T06:12:50.332Z,99382.72
2022-09-15T06:15:18.721Z,99385.09
2022-09-15T06:17:47.843Z,99370.31
2022-09-15T06:20:18.850Z,99381.72
2022-09-15T06:22:46.942Z,99384.69
2022-09-15T06:25:15.885Z,99382.97
2022-09-15T06:27:44.609Z,99383.72
2022-09-15T06:30:32.570Z,99390.09
2022-09-15T06:33:00.433Z,99396.41
2022-09-15T06:35:28.669Z,99396.41
2022-09-15T06:37:58.686Z,99387.81
2022-09-15T06:40:27.084Z,99399.19
2022-09-15T06:42:57.454Z,99403.75
2022-09-15T06:45:25.476Z,99417.88
2022-09-15T06:48:07.581Z,99429.13
2022-09-15T06:50:42.795Z,99432.97
2022-09-15T06:53:12.670Z,99455.06
2022-09-15T06:55:42.142Z,99454.31
2022-09-15T06:58:11.770Z,99460.06
2022-09-15T07:00:40.175Z,99476.41
2022-09-15T07:03:10.579Z,99475.50
2022-09-15T07:05:38.874Z,99476.63
2022-09-15T07:08:07.121Z,99470.31
2022-09-15T07:10:35.398Z,99472.56
2022-09-15T07:13:03.803Z,99475.47
2022-09-15T07:15:32.013Z,99465.97
2022-09-15T07:18:00.918Z,99476.28
2022-09-15T07:20:28.775Z,99460.53
2022-09-15T07:22:56.843Z,99482.09
2022-09-15T07:25:26.764Z,99497.31
2022-09-15T07:27:54.749Z,99494.66
2022-09-15T07:30:22.779Z,99500.53
2022-09-15T07:32:53.024Z,99496.91
2022-09-15T07:35:22.749Z,99501.84
2022-09-15T07:37:52.352Z,99510.91
2022-09-15T07:40:20.521Z,99505.28
2022-09-15T07:42:49.532Z,99511.66
2022-09-15T07:45:18.547Z,99515.97
2022-09-15T07:47:46.715Z,99518.78
2022-09-15T07:50:15.193Z,99522.72
2022-09-15T07:52:43.706Z,99525.16
2022-09-15T07:55:13.105Z,99540.09
2022-09-15T07:57:41.400Z,99534.09
2022-09-15T08:00:10.108Z,99537.16
2022-09-15T08:02:40.810Z,99542.56
2022-09-15T08:05:09.776Z,99555.03
2022-09-15T08:07:37.852Z,99561.66
2022-09-15T08:10:06.890Z,99557.13
2022-09-15T08:12:36.411Z,99555.16
2022-09-15T08:15:05.199Z,99549.06
2022-09-15T08:17:35.111Z,99553.44
2022-09-15T08:20:04.642Z,99553.59
2022-09-15T08:22:33.436Z,99549.66
2022-09-15T08:25:01.331Z,99571.56
2022-09-15T08:27:29.474Z,99570.72
2022-09-15T08:29:58.047Z,99573.03
2022-09-15T08:32:26.117Z,99565.44
2022-09-15T08:34:54.285Z,99575.84
2022-09-15T08:37:22.416Z,99591.13
2022-09-15T08:39:50.689Z,99591.53
2022-09-15T08:42:21.032Z,99601.78
2022-09-15T08:45:09.581Z,99603.50
2022-09-15T08:47:48.269Z,99604.34
2022-09-15T08:50:40.340Z,99609.16
2022-09-15T08:53:35.332Z,99588.94
2022-09-15T08:56:14.192Z,99606.94
2022-09-15T08:58:46.707Z,99617.69
2022-09-15T09:01:39.488Z,99620.28
2022-09-15T09:04:55.044Z,99622.38
2022-09-15T09:08:07.846Z,99619.53
2022-09-15T09:10:59.194Z,99624.81
2022-09-15T09:14:00.753Z,99630.56
2022-09-15T09:16:50.253Z,99655.41
2022-09-15T09:19:34.256Z,99661.66
2022-09-15T09:22:23.843Z,99649.44
2022-09-15T09:24:56.737Z,99646.13
2022-09-15T09:27:29.940Z,99670.13
2022-09-15T09:30:04.006Z,99664.59
2022-09-15T09:33:08.545Z,99655.41
2022-09-15T09:35:45.711Z,99665.72
2022-09-15T09:38:32.768Z,99671.81
2022-09-15T09:41:02.799Z,99673.03
2022-09-15T09:43:32.731Z,99665.81
2022-09-15T09:46:02.181Z,99661.19
2022-09-15T09:48:30.883Z,99663.75
2022-09-15T09:50:58.734Z,99649.41
2022-09-15T09:53:34.071Z,99635.69
2022-09-15T09:56:29.547Z,99657.84
2022-09-15T09:58:57.477Z,99668.00
2022-09-15T10:01:26.370Z,99675.16
2022-09-15T10:04:19.560Z,99673.41
2022-09-15T10:06:48.220Z,99662.03
2022-09-15T10:09:19.705Z,99668.28
2022-09-15T10:11:59.668Z,99672.19
2022-09-15T10:14:42.980Z,99656.16
2022-09-15T10:20:50.111Z,99662.38
2022-09-15T10:23:18.249Z,99673.53
2022-09-15T10:25:59.002Z,99669.63
2022-09-15T10:28:28.334Z,99672.19
2022-09-15T10:31:13.774Z,99664.56
2022-09-15T10:33:48.139Z,99668.16
2022-09-15T10:36:24.300Z,99657.00
2022-09-15T10:39:21.262Z,99678.06
2022-09-15T10:42:10.198Z,99667.50
2022-09-15T10:45:19.990Z,99681.13
2022-09-15T10:48:23.916Z,99677.56
2022-09-15T10:50:55.107Z,99679.41
2022-09-15T10:54:14.776Z,99679.28
2022-09-15T10:56:50.944Z,99681.41
2022-09-15T11:00:11.053Z,99685.06
2022-09-15T11:02:51.099Z,99680.25
2022-09-15T11:06:06.244Z,99679.00
2022-09-15T11:09:14.109Z,99689.19
2022-09-15T11:11:44.595Z,99679.72
2022-09-15T11:14:32.812Z,99681.53
2022-09-15T11:17:10.894Z,99686.41
2022-09-15T11:20:04.863Z,99690.31
2022-09-15T11:22:49.723Z,99682.84
2022-09-15T11:25:32.653Z,99693.44
2022-09-15T11:28:17.445Z,99698.25
2022-09-15T11:31:31.835Z,99693.56
2022-09-15T11:34:41.906Z,99696.00
2022-09-15T11:37:17.269Z,99701.72
2022-09-15T11:40:02.236Z,99709.91
2022-09-15T11:42:35.082Z,99712.22
2022-09-15T11:45:03.956Z,99709.53
2022-09-15T11:47:49.295Z,99715.13
2022-09-15T11:50:53.059Z,99697.00
2022-09-15T11:53:54.118Z,99726.84
2022-09-15T11:56:38.491Z,99728.41
2022-09-15T11:59:34.378Z,99729.72
2022-09-15T12:02:38.059Z,99719.53
2022-09-15T12:05:24.493Z,99739.09
2022-09-15T12:08:12.950Z,99737.84
2022-09-15T12:10:46.819Z,99734.25
2022-09-15T12:13:35.213Z,99736.25
2022-09-15T12:16:12.323Z,99737.59
2022-09-15T12:19:12.125Z,99739.50
2022-09-15T12:22:48.248Z,99734.25
2022-09-15T12:25:25.289Z,99740.91
2022-09-15T12:28:52.617Z,99750.13
2022-09-15T12:31:26.645Z,99760.19
2022-09-15T12:35:18.382Z,99754.56
2022-09-15T12:37:58.281Z,99746.91
2022-09-15T12:40:42.350Z,99751.84
2022-09-15T12:43:13.514Z,99758.97
2022-09-15T12:45:52.282Z,99749.38
2022-09-15T12:48:35.753Z,99748.66
2022-09-15T12:51:09.763Z,99747.47
2022-09-15T12:54:16.492Z,99749.69
2022-09-15T12:56:54.426Z,99748.00
2022-09-15T12:59:28.838Z,99741.84
2022-09-15T13:01:57.616Z,99746.41
2022-09-15T13:04:54.284Z,99738.69
2022-09-15T13:07:36.440Z,99749.50
2022-09-15T13:10:13.722Z,99747.94
2022-09-15T13:12:53.642Z,99747.06
2022-09-15T13:15:25.621Z,99746.47
2022-09-15T13:17:55.933Z,99743.63
2022-09-15T13:20:31.950Z,99739.22
2022-09-15T13:23:01.868Z,99743.38
2022-09-15T13:25:30.744Z,99731.47
2022-09-15T13:28:03.318Z,99742.84
2022-09-15T13:31:01.663Z,99746.75
2022-09-15T13:40:44.715Z,99741.56
2022-09-15T13:44:01.337Z,99739.59
2022-09-15T13:46:56.900Z,99738.94
2022-09-15T14:01:26.381Z,99729.06
2022-09-15T14:04:03.648Z,99730.47
2022-09-15T14:06:41.622Z,99728.69
2022-09-15T14:09:27.286Z,99723.69
2022-09-15T14:12:03.916Z,99725.38
2022-09-15T14:14:44.942Z,99722.78
2022-09-15T14:17:22.619Z,99733.22
2022-09-15T14:19:58.368Z,99720.81
2022-09-15T14:22:37.783Z,99724.53
2022-09-15T14:25:16.923Z,99716.97
2022-09-15T14:27:55.246Z,99719.56
2022-09-15T14:30:38.132Z,99723.09
2022-09-15T14:33:17.336Z,99716.00
2022-09-15T14:35:46.611Z,99724.97
2022-09-15T14:38:24.791Z,99707.41
2022-09-15T14:40:58.174Z,99731.06
2022-09-15T14:43:28.942Z,99734.09
2022-09-15T14:46:09.899Z,99737.94
2022-09-15T14:48:38.568Z,99729.78
2022-09-15T14:51:28.733Z,99731.19
2022-09-15T14:54:00.024Z,99736.78
2022-09-15T14:56:36.606Z,99734.59
2022-09-15T14:59:12.661Z,99734.50
2022-09-15T15:02:03.549Z,99724.34
2022-09-15T15:04:43.272Z,99732.91
2022-09-15T15:07:37.253Z,99728.91
2022-09-15T16:04:53.601Z,99732.91
2022-09-15T16:07:23.959Z,99730.34
2022-09-15T16:09:54.229Z,99725.38
2022-09-15T16:12:22.425Z,99725.94
2022-09-15T16:14:51.507Z,99722.22
2022-09-15T16:17:19.899Z,99730.03
2022-09-15T16:19:49.020Z,99730.63
2022-09-15T16:22:21.271Z,99733.19
2022-09-15T16:24:49.455Z,99735.34
2022-09-15T16:27:19.658Z,99749.72
2022-09-15T16:29:48.263Z,99736.03
2022-09-15T16:32:22.249Z,99748.16
2022-09-15T16:34:52.912Z,99739.75
2022-09-15T16:37:22.332Z,99750.31
2022-09-15T16:39:53.471Z,99755.84
2022-09-15T16:42:21.403Z,99756.25
2022-09-15T16:44:49.226Z,99747.00
2022-09-15T16:47:17.681Z,99753.28
2022-09-15T16:49:45.787Z,99756.97
2022-09-15T16:52:17.417Z,99754.69
2022-09-15T16:54:45.988Z,99748.84
2022-09-15T16:57:18.134Z,99757.97
2022-09-15T16:59:46.851Z,99764.34
2022-09-15T17:02:16.034Z,99759.25
2022-09-15T17:04:45.226Z,99768.22
2022-09-15T17:07:18.524Z,99759.94
2022-09-15T17:09:50.071Z,99759.38
2022-09-15T17:12:20.934Z,99770.03
2022-09-15T17:14:49.945Z,99784.44
2022-09-15T17:17:25.150Z,99760.34
2022-09-15T17:19:54.660Z,99764.19
2022-09-15T17:22:23.589Z,99760.91
2022-09-15T17:24:51.982Z,99765.88
2022-09-15T17:27:21.908Z,99769.28
2022-09-15T17:29:49.712Z,99770.28
2022-09-15T17:32:18.327Z,99774.69
2022-09-15T17:34:50.922Z,99771.44
2022-09-15T17:37:19.551Z,99773.13
2022-09-15T17:39:50.652Z,99768.72
2022-09-15T17:42:19.738Z,99773.50
2022-09-15T17:44:47.829Z,99766.25
2022-09-15T17:47:16.312Z,99762.56
2022-09-15T17:49:46.500Z,99744.88
2022-09-15T17:52:14.878Z,99765.41
2022-09-15T17:54:42.901Z,99770.09
2022-09-15T17:57:12.246Z,99758.84
2022-09-15T17:59:40.638Z,99763.09
2022-09-15T18:02:19.805Z,99763.09
2022-09-15T18:04:48.154Z,99774.63
2022-09-15T18:07:16.029Z,99769.06
2022-09-15T18:09:44.285Z,99778.03
2022-09-15T18:12:15.206Z,99780.03
2022-09-15T18:14:45.171Z,99782.25
2022-09-15T18:17:13.293Z,99771.00
2022-09-15T18:19:42.825Z,99788.22
2022-09-15T18:22:14.448Z,99790.47
2022-09-15T18:24:43.263Z,99782.06
2022-09-15T18:27:12.277Z,99773.59
2022-09-15T18:29:43.926Z,99780.28
2022-09-15T18:32:33.519Z,99781.94
2022-09-15T18:35:24.164Z,99787.75
2022-09-15T18:38:01.361Z,99792.84
2022-09-15T18:40:31.056Z,99801.19
2022-09-15T18:42:59.778Z,99794.59
2022-09-15T18:45:28.371Z,99796.56
2022-09-15T18:47:57.980Z,99805.19
2022-09-15T18:50:28.089Z,99803.88
2022-09-15T18:52:56.168Z,99789.81
2022-09-15T18:55:25.272Z,99816.31
2022-09-15T18:57:56.855Z,99811.53
2022-09-15T19:00:28.971Z,99826.19
2022-09-15T19:03:06.686Z,99825.56
2022-09-15T19:05:37.690Z,99825.84
2022-09-15T19:08:08.559Z,99828.06
2022-09-15T19:10:39.791Z,99829.41
2022-09-15T19:13:10.973Z,99838.03
2022-09-15T19:15:44.287Z,99829.94
2022-09-15T19:18:14.199Z,99836.56
2022-09-15T19:20:43.118Z,99833.53
2022-09-15T19:23:11.388Z,99833.53
2022-09-15T19:25:43.213Z,99843.59
2022-09-15T19:28:11.463Z,99840.50
2022-09-15T19:30:39.650Z,99830.81
2022-09-15T19:33:08.379Z,99843.94
2022-09-15T19:35:41.227Z,99843.47
2022-09-15T19:38:10.005Z,99838.34
2022-09-15T19:40:38.746Z,99841.41
2022-09-15T19:43:07.289Z,99846.19
2022-09-15T19:45:37.347Z,99846.31
2022-09-15T19:48:05.979Z,99853.78
2022-09-15T19:50:34.480Z,99846.81
2022-09-15T19:53:02.893Z,99834.94
2022-09-15T19:55:31.426Z,99840.91
2022-09-15T19:57:59.412Z,99846.44
2022-09-15T20:00:29.253Z,99844.09
2022-09-15T20:02:58.608Z,99845.81
2022-09-15T20:05:27.450Z,99851.84
2022-09-15T20:07:55.742Z,99855.88
2022-09-15T20:10:23.983Z,99854.19
2022-09-15T20:12:53.294Z,99841.78
2022-09-15T20:15:23.028Z,99846.06
2022-09-15T20:17:54.133Z,99831.50
2022-09-15T20:20:23.627Z,99855.38
2022-09-15T20:22:53.102Z,99852.94
2022-09-15T20:25:24.269Z,99862.97
2022-09-15T20:27:53.034Z,99855.31
2022-09-15T20:30:23.796Z,99858.03
2022-09-15T20:32:52.319Z,99857.03
2022-09-15T20:35:20.912Z,99857.88
2022-09-15T20:37:49.841Z,99855.78
2022-09-15T20:40:19.168Z,99872.56
2022-09-15T20:42:48.333Z,99871.97
2022-09-15T20:45:18.024Z,99875.50
2022-09-15T20:47:46.583Z,99870.47
2022-09-15T20:50:17.934Z,99874.53
2022-09-15T20:52:52.081Z,99875.88
2022-09-15T20:55:20.245Z,99876.72
2022-09-15T20:57:48.554Z,99882.75
2022-09-15T21:00:20.773Z,99878.22
2022-09-15T21:02:52.102Z,99879.28
2022-09-15T21:05:20.403Z,99883.13
2022-09-15T21:07:48.321Z,99886.50
2022-09-15T21:10:17.065Z,99888.72
2022-09-15T21:12:45.842Z,99887.72
2022-09-15T21:15:14.484Z,99885.88
2022-09-15T21:17:42.159Z,99885.66
2022-09-15T21:20:11.287Z,99872.66
2022-09-15T21:22:39.025Z,99896.09
2022-09-15T21:25:11.276Z,99894.97
2022-09-15T21:27:42.558Z,99898.56
2022-09-15T21:30:11.116Z,99903.06
2022-09-15T21:32:39.426Z,99901.25
2022-09-15T21:35:08.329Z,99906.88
2022-09-15T21:37:36.410Z,99906.75
2022-09-15T21:40:07.802Z,99911.41
2022-09-15T21:42:36.779Z,99910.75
2022-09-15T21:45:08.547Z,99905.50
2022-09-15T21:47:36.563Z,99910.75
2022-09-15T21:50:05.809Z,99910.75
2022-09-15T21:52:33.513Z,99917.13
2022-09-15T21:55:02.681Z,99915.44
2022-09-15T21:57:32.627Z,99915.66
2022-09-15T22:00:00.332Z,99915.53
2022-09-15T22:02:28.425Z,99898.84
2022-09-15T22:04:59.771Z,99894.31
2022-09-15T22:07:29.071Z,99905.63
2022-09-15T22:09:57.231Z,99886.63
2022-09-15T22:12:26.371Z,99884.53
2022-09-15T22:14:54.139Z,99900.13
2022-09-15T22:17:22.181Z,99895.06
2022-09-15T22:19:49.947Z,99895.06
2022-09-15T22:22:17.798Z,99888.34
2022-09-15T22:24:47.923Z,99912.47
2022-09-15T22:27:16.907Z,99905.22
2022-09-15T22:29:46.793Z,99924.25
2022-09-15T22:32:15.016Z,99918.84
2022-09-15T22:34:43.284Z,99889.91
2022-09-15T22:37:11.082Z,99910.38
2022-09-15T22:39:57.931Z,99896.16
2022-09-15T22:42:27.418Z,99919.97
2022-09-15T22:44:55.137Z,99915.53
2022-09-15T22:47:22.993Z,99913.72
2022-09-15T22:49:51.791Z,99918.84
2022-09-15T22:52:21.130Z,99928.66
2022-09-15T22:54:49.647Z,99913.31
2022-09-15T22:57:18.691Z,99929.75
2022-09-15T22:59:46.748Z,99937.38
2022-09-15T23:02:15.569Z,99936.38
2022-09-15T23:04:43.405Z,99930.00
2022-09-15T23:07:14.438Z,99937.00
2022-09-15T23:09:42.308Z,99947.56
2022-09-15T23:12:10.371Z,99942.19
2022-09-15T23:14:38.145Z,99945.59
2022-09-15T23:17:05.895Z,99934.81
2022-09-15T23:19:33.866Z,99940.94
2022-09-15T23:22:01.918Z,99929.31
2022-09-15T23:24:29.646Z,99936.44
2022-09-15T23:26:58.975Z,99930.28
2022-09-15T23:29:27.022Z,99934.81
2022-09-15T23:31:57.833Z,99942.06
2022-09-15T23:34:26.331Z,99930.78
2022-09-15T23:36:54.090Z,99939.50
2022-09-15T23:39:24.104Z,99936.88
2022-09-15T23:41:52.053Z,99936.38
2022-09-15T23:44:20.101Z,99947.56
2022-09-15T23:46:49.296Z,99935.66
2022-09-15T23:49:18.793Z,99939.06
2022-09-15T23:51:46.870Z,99942.28
2022-09-15T23:54:14.938Z,99925.34
2022-09-15T23:56:43.372Z,99942.28
2022-09-15T23:59:11.217Z,99935.19
